Cotulla, Texas
Current Conditions -  °F | °C
As of 11:53 AM on Friday 24 Oct 2014 (Local Time) from KCOT Reporting Station
Clear Clear  
Wind Chill: 82°   Ceiling: Unl
Heat Index: 82°   Visibility: 10mi
Dew Point: 60°   Wind: 6mph
Humidity: 47%   Direction: NA
Pressure: 30.18"   Gusts: NA
Location:  28.44°N, 99.24°W
Report Text: KCOT 241653Z AUTO VRB05KT 10SM CLR 28/16 A3018 RMK AO2 SLP211 T02780156
Loading
Personal Weather Stations






























Interactive Weather Map
Tropical Storm Tracking
New forecast layout! Learn more

10-Day Weather Forecast

Advertisements
Track Severe Weather on mobile